sensor_id;sensor_type;location;lat;lon;timestamp;pressure;altitude;pressure_sealevel;temperature;humidity
52469;BME280;38381;53.688;10.776;2022-09-13T00:03:10;100602.91;;;15.42;76.50
52469;BME280;38381;53.688;10.776;2022-09-13T00:08:11;100609.78;;;15.48;76.03
52469;BME280;38381;53.688;10.776;2022-09-13T00:13:14;100596.59;;;15.56;75.78
52469;BME280;38381;53.688;10.776;2022-09-13T00:18:15;100599.09;;;15.62;75.50
52469;BME280;38381;53.688;10.776;2022-09-13T00:23:15;100594.72;;;15.62;75.43
52469;BME280;38381;53.688;10.776;2022-09-13T00:28:16;100584.38;;;15.56;75.88
52469;BME280;38381;53.688;10.776;2022-09-13T00:33:16;100575.56;;;15.63;75.45
52469;BME280;38381;53.688;10.776;2022-09-13T00:38:16;100571.47;;;15.48;76.13
52469;BME280;38381;53.688;10.776;2022-09-13T00:43:19;100573.13;;;15.53;75.84
52469;BME280;38381;53.688;10.776;2022-09-13T00:48:21;100567.22;;;15.41;76.42
52469;BME280;38381;53.688;10.776;2022-09-13T00:53:30;100555.91;;;15.39;76.59
52469;BME280;38381;53.688;10.776;2022-09-13T00:58:51;100546.41;;;15.34;76.56
52469;BME280;38381;53.688;10.776;2022-09-13T01:03:54;100527.16;;;15.39;76.46
52469;BME280;38381;53.688;10.776;2022-09-13T01:08:54;100535.75;;;15.47;75.93
52469;BME280;38381;53.688;10.776;2022-09-13T01:13:58;100525.50;;;15.35;78.04
52469;BME280;38381;53.688;10.776;2022-09-13T01:18:58;100524.94;;;15.18;79.98
52469;BME280;38381;53.688;10.776;2022-09-13T01:35:21;100533.91;;;15.01;82.39
52469;BME280;38381;53.688;10.776;2022-09-13T01:40:34;100539.13;;;15.01;82.79
52469;BME280;38381;53.688;10.776;2022-09-13T01:45:59;100536.50;;;15.01;83.08
52469;BME280;38381;53.688;10.776;2022-09-13T01:51:22;100526.81;;;15.09;82.66
52469;BME280;38381;53.688;10.776;2022-09-13T01:56:42;100528.91;;;14.86;84.60
52469;BME280;38381;53.688;10.776;2022-09-13T02:02:20;100509.94;;;14.73;85.58
52469;BME280;38381;53.688;10.776;2022-09-13T02:07:29;100502.00;;;14.81;84.74
52469;BME280;38381;53.688;10.776;2022-09-13T02:12:33;100497.91;;;14.64;86.33
52469;BME280;38381;53.688;10.776;2022-09-13T02:17:38;100490.75;;;14.77;85.80
52469;BME280;38381;53.688;10.776;2022-09-13T02:22:43;100485.59;;;14.73;85.92
52469;BME280;38381;53.688;10.776;2022-09-13T02:27:47;100471.88;;;14.55;87.20
52469;BME280;38381;53.688;10.776;2022-09-13T02:32:57;100465.81;;;14.55;87.66
52469;BME280;38381;53.688;10.776;2022-09-13T02:38:04;100450.38;;;14.39;88.92
52469;BME280;38381;53.688;10.776;2022-09-13T02:43:11;100439.91;;;14.42;88.55
52469;BME280;38381;53.688;10.776;2022-09-13T02:48:30;100434.88;;;14.27;89.32
52469;BME280;38381;53.688;10.776;2022-09-13T02:53:40;100440.06;;;14.32;89.95
52469;BME280;38381;53.688;10.776;2022-09-13T02:58:44;100432.25;;;14.28;89.84
52469;BME280;38381;53.688;10.776;2022-09-13T03:03:46;100436.78;;;14.16;91.41
52469;BME280;38381;53.688;10.776;2022-09-13T03:08:46;100420.22;;;14.18;90.89
52469;BME280;38381;53.688;10.776;2022-09-13T03:14:07;100412.41;;;14.18;91.22
52469;BME280;38381;53.688;10.776;2022-09-13T03:19:35;100405.41;;;14.23;90.43
52469;BME280;38381;53.688;10.776;2022-09-13T03:24:53;100420.22;;;14.21;90.63
52469;BME280;38381;53.688;10.776;2022-09-13T03:30:02;100407.00;;;14.32;89.80
52469;BME280;38381;53.688;10.776;2022-09-13T03:35:08;100395.72;;;14.32;90.26
52469;BME280;38381;53.688;10.776;2022-09-13T03:45:42;100401.72;;;14.37;90.14
52469;BME280;38381;53.688;10.776;2022-09-13T03:50:45;100394.63;;;14.46;89.69
52469;BME280;38381;53.688;10.776;2022-09-13T03:55:46;100384.28;;;14.39;90.01
52469;BME280;38381;53.688;10.776;2022-09-13T04:00:47;100377.28;;;14.44;90.47
52469;BME280;38381;53.688;10.776;2022-09-13T04:05:47;100371.94;;;14.50;89.99
52469;BME280;38381;53.688;10.776;2022-09-13T04:10:49;100369.34;;;14.48;90.40
52469;BME280;38381;53.688;10.776;2022-09-13T04:15:50;100368.56;;;14.43;91.20
52469;BME280;38381;53.688;10.776;2022-09-13T04:20:55;100368.72;;;14.34;92.15
52469;BME280;38381;53.688;10.776;2022-09-13T04:26:03;100360.88;;;14.36;92.53
52469;BME280;38381;53.688;10.776;2022-09-13T04:31:04;100366.03;;;14.39;92.55
52469;BME280;38381;53.688;10.776;2022-09-13T04:36:04;100360.88;;;14.36;93.39
52469;BME280;38381;53.688;10.776;2022-09-13T04:41:04;100364.91;;;14.57;91.87
52469;BME280;38381;53.688;10.776;2022-09-13T04:46:05;100373.28;;;14.76;90.94
52469;BME280;38381;53.688;10.776;2022-09-13T04:51:05;100367.28;;;14.71;91.61
52469;BME280;38381;53.688;10.776;2022-09-13T04:56:05;100355.94;;;14.72;91.76
52469;BME280;38381;53.688;10.776;2022-09-13T05:01:08;100368.25;;;14.65;92.56
52469;BME280;38381;53.688;10.776;2022-09-13T05:06:11;100363.06;;;14.63;92.78
52469;BME280;38381;53.688;10.776;2022-09-13T05:11:12;100362.91;;;14.73;92.58
52469;BME280;38381;53.688;10.776;2022-09-13T05:16:12;100361.28;;;14.65;93.57
52469;BME280;38381;53.688;10.776;2022-09-13T05:21:12;100367.22;;;14.74;93.64
52469;BME280;38381;53.688;10.776;2022-09-13T05:26:13;100368.50;;;15.01;92.12
52469;BME280;38381;53.688;10.776;2022-09-13T05:31:17;100371.94;;;15.03;92.19
52469;BME280;38381;53.688;10.776;2022-09-13T05:36:17;100375.25;;;15.13;92.62
52469;BME280;38381;53.688;10.776;2022-09-13T05:41:19;100384.03;;;15.08;93.36
52469;BME280;38381;53.688;10.776;2022-09-13T05:46:20;100387.22;;;15.24;92.75
52469;BME280;38381;53.688;10.776;2022-09-13T05:51:21;100387.22;;;15.24;92.70
52469;BME280;38381;53.688;10.776;2022-09-13T05:56:27;100380.94;;;15.33;93.33
52469;BME280;38381;53.688;10.776;2022-09-13T06:01:28;100373.09;;;15.35;93.54
52469;BME280;38381;53.688;10.776;2022-09-13T06:06:28;100375.72;;;15.35;93.87
52469;BME280;38381;53.688;10.776;2022-09-13T06:11:28;100374.59;;;15.46;93.03
52469;BME280;38381;53.688;10.776;2022-09-13T06:16:29;100380.72;;;15.44;93.36
52469;BME280;38381;53.688;10.776;2022-09-13T06:21:29;100395.31;;;15.56;93.22
52469;BME280;38381;53.688;10.776;2022-09-13T06:26:29;100386.47;;;15.63;93.18
52469;BME280;38381;53.688;10.776;2022-09-13T06:31:30;100391.50;;;15.75;92.32
52469;BME280;38381;53.688;10.776;2022-09-13T06:36:31;100399.25;;;15.78;92.43
52469;BME280;38381;53.688;10.776;2022-09-13T06:41:31;100386.31;;;15.72;93.27
52469;BME280;38381;53.688;10.776;2022-09-13T06:46:33;100392.38;;;15.73;93.28
52469;BME280;38381;53.688;10.776;2022-09-13T06:51:34;100392.44;;;15.69;94.49
52469;BME280;38381;53.688;10.776;2022-09-13T06:56:36;100387.72;;;15.88;93.94
52469;BME280;38381;53.688;10.776;2022-09-13T07:01:39;100393.97;;;15.81;94.72
52469;BME280;38381;53.688;10.776;2022-09-13T07:06:45;100391.94;;;15.96;93.87
52469;BME280;38381;53.688;10.776;2022-09-13T07:11:49;100385.50;;;16.11;93.37
52469;BME280;38381;53.688;10.776;2022-09-13T07:16:50;100376.56;;;16.19;92.16
52469;BME280;38381;53.688;10.776;2022-09-13T07:21:51;100382.78;;;16.14;93.17
52469;BME280;38381;53.688;10.776;2022-09-13T07:26:52;100395.13;;;16.46;92.40
52469;BME280;38381;53.688;10.776;2022-09-13T07:31:53;100394.00;;;16.58;92.35
52469;BME280;38381;53.688;10.776;2022-09-13T07:36:54;100401.31;;;16.81;92.02
52469;BME280;38381;53.688;10.776;2022-09-13T07:41:54;100407.69;;;17.05;90.03
52469;BME280;38381;53.688;10.776;2022-09-13T07:46:55;100407.84;;;16.99;89.81
52469;BME280;38381;53.688;10.776;2022-09-13T07:51:55;100410.31;;;17.05;90.52
52469;BME280;38381;53.688;10.776;2022-09-13T07:56:55;100409.66;;;17.29;89.51
52469;BME280;38381;53.688;10.776;2022-09-13T08:01:56;100406.31;;;17.56;88.82
52469;BME280;38381;53.688;10.776;2022-09-13T08:06:56;100408.63;;;17.66;87.12
52469;BME280;38381;53.688;10.776;2022-09-13T08:11:56;100411.22;;;17.68;87.06
52469;BME280;38381;53.688;10.776;2022-09-13T08:16:56;100411.69;;;17.82;86.02
52469;BME280;38381;53.688;10.776;2022-09-13T08:21:57;100420.94;;;17.96;85.78
52469;BME280;38381;53.688;10.776;2022-09-13T08:26:57;100414.16;;;17.88;85.60
52469;BME280;38381;53.688;10.776;2022-09-13T08:31:57;100416.09;;;18.12;84.41
52469;BME280;38381;53.688;10.776;2022-09-13T08:36:57;100410.00;;;18.11;83.42
52469;BME280;38381;53.688;10.776;2022-09-13T08:42:17;100416.38;;;18.30;82.09
52469;BME280;38381;53.688;10.776;2022-09-13T08:47:31;100409.84;;;18.44;81.35
52469;BME280;38381;53.688;10.776;2022-09-13T08:58:17;100399.66;;;18.61;78.30
52469;BME280;38381;53.688;10.776;2022-09-13T09:08:48;100407.25;;;18.97;76.77
52469;BME280;38381;53.688;10.776;2022-09-13T09:14:14;100408.34;;;18.63;71.76
52469;BME280;38381;53.688;10.776;2022-09-13T09:19:53;100416.59;;;18.51;70.34
52469;BME280;38381;53.688;10.776;2022-09-13T09:24:55;100420.00;;;18.55;68.22
52469;BME280;38381;53.688;10.776;2022-09-13T09:29:56;100420.25;;;18.74;67.14
52469;BME280;38381;53.688;10.776;2022-09-13T09:40:12;100415.63;;;19.08;61.84
52469;BME280;38381;53.688;10.776;2022-09-13T09:50:30;100419.59;;;19.20;60.13
52469;BME280;38381;53.688;10.776;2022-09-13T10:00:55;100409.06;;;19.45;59.82
52469;BME280;38381;53.688;10.776;2022-09-13T10:06:12;100414.41;;;19.67;59.69
52469;BME280;38381;53.688;10.776;2022-09-13T10:11:13;100412.16;;;19.82;60.13
52469;BME280;38381;53.688;10.776;2022-09-13T10:16:30;100411.28;;;20.05;58.52
52469;BME280;38381;53.688;10.776;2022-09-13T10:21:30;100418.28;;;20.06;56.90
52469;BME280;38381;53.688;10.776;2022-09-13T10:26:31;100415.69;;;20.04;56.63
52469;BME280;38381;53.688;10.776;2022-09-13T10:31:33;100407.50;;;20.12;54.94
52469;BME280;38381;53.688;10.776;2022-09-13T10:36:36;100394.16;;;20.17;55.89
52469;BME280;38381;53.688;10.776;2022-09-13T10:41:42;100403.50;;;20.24;56.54
52469;BME280;38381;53.688;10.776;2022-09-13T10:46:47;100399.84;;;20.28;55.95
52469;BME280;38381;53.688;10.776;2022-09-13T10:51:49;100382.63;;;20.41;55.92
52469;BME280;38381;53.688;10.776;2022-09-13T10:56:49;100399.59;;;20.78;55.15
52469;BME280;38381;53.688;10.776;2022-09-13T11:12:17;100391.09;;;20.72;55.16
52469;BME280;38381;53.688;10.776;2022-09-13T11:17:23;100372.31;;;20.79;54.91
52469;BME280;38381;53.688;10.776;2022-09-13T11:27:54;100372.66;;;21.13;53.07
52469;BME280;38381;53.688;10.776;2022-09-13T11:33:20;100378.25;;;21.05;53.70
52469;BME280;38381;53.688;10.776;2022-09-13T11:49:42;100369.22;;;20.69;55.98
52469;BME280;38381;53.688;10.776;2022-09-13T11:54:58;100373.63;;;20.47;57.79
52469;BME280;38381;53.688;10.776;2022-09-13T12:05:21;100367.28;;;20.30;59.33
52469;BME280;38381;53.688;10.776;2022-09-13T12:10:25;100361.63;;;20.62;58.50
52469;BME280;38381;53.688;10.776;2022-09-13T12:20:37;100358.16;;;20.82;56.94
52469;BME280;38381;53.688;10.776;2022-09-13T12:25:48;100348.59;;;20.79;56.28
52469;BME280;38381;53.688;10.776;2022-09-13T12:30:56;100352.31;;;20.53;54.96
52469;BME280;38381;53.688;10.776;2022-09-13T13:02:30;100362.31;;;20.87;56.46
52469;BME280;38381;53.688;10.776;2022-09-13T13:07:35;100358.44;;;20.76;56.71
52469;BME280;38381;53.688;10.776;2022-09-13T13:12:39;100360.00;;;20.58;53.22
52469;BME280;38381;53.688;10.776;2022-09-13T13:17:46;100363.16;;;20.67;52.97
52469;BME280;38381;53.688;10.776;2022-09-13T13:22:49;100360.53;;;20.67;52.29
52469;BME280;38381;53.688;10.776;2022-09-13T13:27:49;100357.59;;;20.53;51.56
52469;BME280;38381;53.688;10.776;2022-09-13T13:33:04;100363.69;;;20.54;52.64
52469;BME280;38381;53.688;10.776;2022-09-13T13:43:30;100366.16;;;20.58;53.37
52469;BME280;38381;53.688;10.776;2022-09-13T13:48:37;100365.34;;;20.56;52.82
52469;BME280;38381;53.688;10.776;2022-09-13T13:53:39;100361.00;;;20.55;51.32
52469;BME280;38381;53.688;10.776;2022-09-13T14:09:27;100355.25;;;20.67;52.64
52469;BME280;38381;53.688;10.776;2022-09-13T14:19:58;100365.41;;;20.55;51.98
52469;BME280;38381;53.688;10.776;2022-09-13T14:30:20;100360.78;;;20.61;53.13
52469;BME280;38381;53.688;10.776;2022-09-13T14:35:29;100362.84;;;20.53;53.62
52469;BME280;38381;53.688;10.776;2022-09-13T14:40:29;100359.44;;;20.07;55.21
52469;BME280;38381;53.688;10.776;2022-09-13T14:45:33;100378.41;;;20.15;56.36
52469;BME280;38381;53.688;10.776;2022-09-13T14:50:41;100364.34;;;20.16;56.95
52469;BME280;38381;53.688;10.776;2022-09-13T14:55:55;100366.28;;;20.11;58.10
52469;BME280;38381;53.688;10.776;2022-09-13T15:01:00;100361.91;;;19.88;57.96
52469;BME280;38381;53.688;10.776;2022-09-13T15:06:02;100365.06;;;19.98;58.50
52469;BME280;38381;53.688;10.776;2022-09-13T15:11:06;100363.13;;;19.79;58.52
52469;BME280;38381;53.688;10.776;2022-09-13T15:16:30;100366.47;;;19.59;58.24
52469;BME280;38381;53.688;10.776;2022-09-13T15:21:34;100365.91;;;19.51;57.97
52469;BME280;38381;53.688;10.776;2022-09-13T15:26:35;100362.97;;;19.35;59.13
52469;BME280;38381;53.688;10.776;2022-09-13T15:31:35;100363.78;;;19.37;58.84
52469;BME280;38381;53.688;10.776;2022-09-13T15:36:35;100373.03;;;19.47;59.18
52469;BME280;38381;53.688;10.776;2022-09-13T15:41:37;100372.81;;;19.54;56.42
52469;BME280;38381;53.688;10.776;2022-09-13T15:47:10;100371.97;;;19.53;55.13
52469;BME280;38381;53.688;10.776;2022-09-13T15:52:09;100372.00;;;19.28;54.92
52469;BME280;38381;53.688;10.776;2022-09-13T15:57:24;100369.25;;;19.31;55.22
52469;BME280;38381;53.688;10.776;2022-09-13T16:02:27;100370.88;;;19.10;55.84
52469;BME280;38381;53.688;10.776;2022-09-13T16:07:29;100376.66;;;18.95;56.50
52469;BME280;38381;53.688;10.776;2022-09-13T16:12:29;100371.81;;;18.82;57.24
52469;BME280;38381;53.688;10.776;2022-09-13T16:17:30;100366.81;;;18.75;57.84
52469;BME280;38381;53.688;10.776;2022-09-13T16:22:30;100378.66;;;18.60;57.30
52469;BME280;38381;53.688;10.776;2022-09-13T16:27:30;100374.91;;;18.42;57.70
52469;BME280;38381;53.688;10.776;2022-09-13T16:32:31;100382.97;;;18.36;57.95
52469;BME280;38381;53.688;10.776;2022-09-13T16:37:31;100384.06;;;18.28;58.56
52469;BME280;38381;53.688;10.776;2022-09-13T16:42:33;100394.16;;;18.13;58.54
52469;BME280;38381;53.688;10.776;2022-09-13T16:47:33;100401.50;;;18.03;59.15
52469;BME280;38381;53.688;10.776;2022-09-13T16:52:34;100396.94;;;17.78;59.40
52469;BME280;38381;53.688;10.776;2022-09-13T16:57:34;100391.94;;;17.69;59.49
52469;BME280;38381;53.688;10.776;2022-09-13T17:02:35;100394.09;;;17.55;59.54
52469;BME280;38381;53.688;10.776;2022-09-13T17:07:35;100395.06;;;17.52;59.21
52469;BME280;38381;53.688;10.776;2022-09-13T17:12:36;100392.78;;;17.40;59.25
52469;BME280;38381;53.688;10.776;2022-09-13T17:17:36;100400.22;;;17.22;59.69
52469;BME280;38381;53.688;10.776;2022-09-13T17:22:36;100398.38;;;17.26;60.04
52469;BME280;38381;53.688;10.776;2022-09-13T17:27:37;100401.34;;;17.14;60.09
52469;BME280;38381;53.688;10.776;2022-09-13T17:32:37;100403.25;;;17.07;60.50
52469;BME280;38381;53.688;10.776;2022-09-13T17:37:37;100397.72;;;16.85;61.34
52469;BME280;38381;53.688;10.776;2022-09-13T17:42:38;100405.56;;;16.85;61.66
52469;BME280;38381;53.688;10.776;2022-09-13T17:47:38;100403.91;;;16.79;62.32
52469;BME280;38381;53.688;10.776;2022-09-13T17:52:38;100412.16;;;16.64;62.41
52469;BME280;38381;53.688;10.776;2022-09-13T17:57:39;100415.78;;;16.58;62.79
52469;BME280;38381;53.688;10.776;2022-09-13T18:02:43;100410.50;;;16.61;62.54
52469;BME280;38381;53.688;10.776;2022-09-13T18:07:43;100388.81;;;16.55;62.61
52469;BME280;38381;53.688;10.776;2022-09-13T18:12:43;100399.56;;;16.42;63.13
52469;BME280;38381;53.688;10.776;2022-09-13T18:17:44;100412.19;;;16.26;63.41
52469;BME280;38381;53.688;10.776;2022-09-13T18:22:44;100423.53;;;16.25;63.83
52469;BME280;38381;53.688;10.776;2022-09-13T18:27:44;100412.50;;;16.11;63.92
52469;BME280;38381;53.688;10.776;2022-09-13T18:32:44;100423.31;;;15.96;64.66
52469;BME280;38381;53.688;10.776;2022-09-13T18:37:45;100432.94;;;15.94;65.13
52469;BME280;38381;53.688;10.776;2022-09-13T18:42:45;100431.22;;;15.93;65.57
52469;BME280;38381;53.688;10.776;2022-09-13T18:47:45;100422.28;;;16.03;65.12
52469;BME280;38381;53.688;10.776;2022-09-13T18:52:45;100431.28;;;15.89;66.02
52469;BME280;38381;53.688;10.776;2022-09-13T18:57:46;100429.53;;;15.88;66.33
52469;BME280;38381;53.688;10.776;2022-09-13T19:02:47;100427.06;;;15.82;66.81
52469;BME280;38381;53.688;10.776;2022-09-13T19:07:47;100424.66;;;15.73;67.24
52469;BME280;38381;53.688;10.776;2022-09-13T19:12:47;100416.81;;;15.73;67.41
52469;BME280;38381;53.688;10.776;2022-09-13T19:17:48;100422.81;;;15.77;67.44
52469;BME280;38381;53.688;10.776;2022-09-13T19:22:48;100421.13;;;15.74;67.85
52469;BME280;38381;53.688;10.776;2022-09-13T19:27:51;100430.00;;;15.64;68.34
52469;BME280;38381;53.688;10.776;2022-09-13T19:32:51;100430.75;;;15.70;68.31
52469;BME280;38381;53.688;10.776;2022-09-13T19:37:51;100426.34;;;15.74;68.48
52469;BME280;38381;53.688;10.776;2022-09-13T19:42:53;100427.16;;;15.78;68.78
52469;BME280;38381;53.688;10.776;2022-09-13T19:47:53;100429.09;;;15.66;68.96
52469;BME280;38381;53.688;10.776;2022-09-13T19:52:53;100426.44;;;15.68;69.45
52469;BME280;38381;53.688;10.776;2022-09-13T19:57:54;100423.81;;;15.69;69.19
52469;BME280;38381;53.688;10.776;2022-09-13T20:02:54;100422.03;;;15.72;69.27
52469;BME280;38381;53.688;10.776;2022-09-13T20:07:54;100422.13;;;15.67;69.59
52469;BME280;38381;53.688;10.776;2022-09-13T20:12:54;100425.63;;;15.64;70.04
52469;BME280;38381;53.688;10.776;2022-09-13T20:17:55;100412.56;;;15.64;70.51
52469;BME280;38381;53.688;10.776;2022-09-13T20:22:55;100417.16;;;15.53;70.52
52469;BME280;38381;53.688;10.776;2022-09-13T20:27:56;100404.25;;;15.44;70.95
52469;BME280;38381;53.688;10.776;2022-09-13T20:32:56;100395.56;;;15.43;71.56
52469;BME280;38381;53.688;10.776;2022-09-13T20:37:57;100397.44;;;15.37;71.83
52469;BME280;38381;53.688;10.776;2022-09-13T20:42:57;100390.56;;;15.31;72.09
52469;BME280;38381;53.688;10.776;2022-09-13T20:47:57;100389.88;;;15.21;72.48
52469;BME280;38381;53.688;10.776;2022-09-13T20:52:58;100394.25;;;15.21;72.71
52469;BME280;38381;53.688;10.776;2022-09-13T20:57:59;100386.28;;;15.28;73.06
52469;BME280;38381;53.688;10.776;2022-09-13T21:03:00;100384.63;;;15.23;73.35
52469;BME280;38381;53.688;10.776;2022-09-13T21:08:00;100383.09;;;15.11;73.88
52469;BME280;38381;53.688;10.776;2022-09-13T21:13:19;100389.97;;;15.17;73.97
52469;BME280;38381;53.688;10.776;2022-09-13T21:18:20;100389.28;;;15.07;74.33
52469;BME280;38381;53.688;10.776;2022-09-13T21:23:20;100384.13;;;15.04;74.92
52469;BME280;38381;53.688;10.776;2022-09-13T21:28:20;100385.56;;;15.19;74.88
52469;BME280;38381;53.688;10.776;2022-09-13T21:33:21;100385.53;;;15.22;74.72
52469;BME280;38381;53.688;10.776;2022-09-13T21:38:24;100378.66;;;15.16;74.93
52469;BME280;38381;53.688;10.776;2022-09-13T21:43:26;100378.75;;;15.12;75.05
52469;BME280;38381;53.688;10.776;2022-09-13T21:48:26;100382.13;;;15.17;74.92
52469;BME280;38381;53.688;10.776;2022-09-13T21:53:30;100391.09;;;15.03;75.44
52469;BME280;38381;53.688;10.776;2022-09-13T21:58:31;100391.97;;;15.02;75.60
52469;BME280;38381;53.688;10.776;2022-09-13T22:03:37;100388.69;;;14.91;76.10
52469;BME280;38381;53.688;10.776;2022-09-13T22:08:39;100393.53;;;15.11;75.96
52469;BME280;38381;53.688;10.776;2022-09-13T22:13:40;100382.47;;;14.98;76.58
52469;BME280;38381;53.688;10.776;2022-09-13T22:24:05;100372.13;;;14.92;76.50
52469;BME280;38381;53.688;10.776;2022-09-13T22:29:06;100382.56;;;14.92;76.87
52469;BME280;38381;53.688;10.776;2022-09-13T22:34:10;100378.28;;;14.88;76.80
52469;BME280;38381;53.688;10.776;2022-09-13T22:39:13;100373.31;;;14.74;77.78
52469;BME280;38381;53.688;10.776;2022-09-13T22:44:13;100367.22;;;14.74;77.83
52469;BME280;38381;53.688;10.776;2022-09-13T22:49:18;100368.88;;;14.81;77.72
52469;BME280;38381;53.688;10.776;2022-09-13T22:54:18;100367.41;;;14.64;78.29
52469;BME280;38381;53.688;10.776;2022-09-13T22:59:20;100355.28;;;14.60;78.79
52469;BME280;38381;53.688;10.776;2022-09-13T23:04:21;100358.75;;;14.61;78.71
52469;BME280;38381;53.688;10.776;2022-09-13T23:09:21;100351.91;;;14.52;79.45
52469;BME280;38381;53.688;10.776;2022-09-13T23:14:21;100353.69;;;14.48;79.57
52469;BME280;38381;53.688;10.776;2022-09-13T23:19:22;100359.69;;;14.54;79.09
52469;BME280;38381;53.688;10.776;2022-09-13T23:24:24;100359.00;;;14.44;79.66
52469;BME280;38381;53.688;10.776;2022-09-13T23:29:24;100359.13;;;14.35;80.12
52469;BME280;38381;53.688;10.776;2022-09-13T23:34:25;100362.72;;;14.27;80.52
52469;BME280;38381;53.688;10.776;2022-09-13T23:39:25;100359.22;;;14.30;80.54
52469;BME280;38381;53.688;10.776;2022-09-13T23:44:26;100363.69;;;14.22;80.73
52469;BME280;38381;53.688;10.776;2022-09-13T23:49:28;100354.09;;;14.22;80.73
52469;BME280;38381;53.688;10.776;2022-09-13T23:54:28;100352.56;;;14.09;81.42
52469;BME280;38381;53.688;10.776;2022-09-13T23:59:28;100342.25;;;14.03;82.08
